This is the latest recevied weather packets stored in our database for station/object HA8LNU. If no packets are shown the sender has not sent any weather packets the latest 10 day(s).
| Time | Temp. | Humidity | Pressure | Rain* | Wind** | Luminosity | Snow |
|---|---|---|---|---|---|---|---|
| 1777655444 | 15.56° C | 28% | 1024.9 hPa | 0 mm | - | - | - |
| 1777651871 | 17.22° C | 22% | 1024.9 hPa | 0 mm | - | - | - |
| 1777651269 | 17.22° C | 22% | 1025 hPa | 0 mm | - | - | - |
| 1777650125 | 17.22° C | 22% | 1025.2 hPa | 0 mm | - | - | - |
| 1777646452 | 18.89° C | 21% | 1025.6 hPa | 0 mm | - | - | - |
| 1777642839 | 20° C | 21% | 1025.8 hPa | 0 mm | - | - | - |
| 1777640431 | 20° C | 21% | 1026.2 hPa | 0 mm | - | - | - |
| 1777638645 | 20° C | 21% | 1026.5 hPa | 0 mm | - | - | - |
| 1777637421 | 18.89° C | 21% | 1026.7 hPa | 0 mm | - | - | - |
| 1777635674 | 20° C | 21% | 1027 hPa | 0 mm | - | - | - |
| 1777630255 | 18.89° C | 23% | 1027.4 hPa | 0 mm | - | - | - |
| 1777627847 | 17.78° C | 24% | 1027.8 hPa | 0 mm | - | - | - |
| 1777626643 | 17.22° C | 30% | 1028 hPa | 0 mm | - | - | - |
| 1777622428 | 15° C | 35% | 1028.4 hPa | 0 mm | - | - | - |
| 1777618815 | 12.22° C | 38% | 1028.2 hPa | 0 mm | - | - | - |
| 1777617711 | 11.67° C | 39% | 1028.2 hPa | 0 mm | - | - | - |
| 1777614661 | 7.78° C | 42% | 1027.9 hPa | 0 mm | - | - | - |
| 1777612252 | 5.56° C | 54% | 1027.9 hPa | 0 mm | - | - | - |
| 1777611650 | 4.44° C | 58% | 1028 hPa | 0 mm | - | - | - |
| 1777604425 | 0° C | 72% | 1027.6 hPa | 0 mm | - | - | - |
| 1777601474 | -0.56° C | 69% | 1027.4 hPa | 0 mm | - | - | - |
| 1777596055 | 0° C | 63% | 1027.4 hPa | 0 mm | - | - | - |
| 1777593647 | 1.67° C | 60% | 1027.5 hPa | 0 mm | - | - | - |
| 1777592442 | 2.22° C | 55% | 1027.6 hPa | 0 mm | - | - | - |
| 1777591840 | 2.78° C | 54% | 1027.6 hPa | 0 mm | - | - | - |
* Rain latest hour (hover to see other rain measurements)
** Current wind speed in m/s (hover to see current wind gust speed)